createdAt,value
2022-10-05T00:02:39.399Z,96579.72
2022-10-05T00:17:41.563Z,96558.63
2022-10-05T00:32:43.616Z,96571.88
2022-10-05T00:47:58.923Z,96556.50
2022-10-05T01:03:27.307Z,96548.56
2022-10-05T01:18:38.674Z,96554.03
2022-10-05T01:33:42.814Z,96538.50
2022-10-05T01:48:56.851Z,96537.00
2022-10-05T02:04:01.838Z,96533.91
2022-10-05T02:19:23.282Z,96541.00
2022-10-05T02:34:27.964Z,96540.84
2022-10-05T02:49:40.065Z,96533.66
2022-10-05T03:04:51.235Z,96544.53
2022-10-05T03:20:11.628Z,96559.41
2022-10-05T03:35:19.794Z,96541.03
2022-10-05T03:50:42.302Z,96504.13
2022-10-05T04:05:50.890Z,96495.00
2022-10-05T04:20:58.756Z,96475.66
2022-10-05T04:36:01.151Z,96470.50
2022-10-05T04:51:11.148Z,96480.94
2022-10-05T05:06:31.974Z,96499.41
2022-10-05T05:21:53.378Z,96532.28
2022-10-05T05:36:55.660Z,96548.84
2022-10-05T05:51:59.182Z,96563.13
2022-10-05T06:07:02.029Z,96541.69
2022-10-05T06:22:23.928Z,96554.34
2022-10-05T06:37:34.019Z,96567.44
2022-10-05T06:52:39.682Z,96582.16
2022-10-05T07:07:52.449Z,96586.38
2022-10-05T07:22:55.368Z,96595.00
2022-10-05T07:37:58.611Z,96594.22
2022-10-05T07:53:13.916Z,96608.50
2022-10-05T08:08:18.209Z,96611.72
2022-10-05T08:23:48.061Z,96620.41
2022-10-05T08:38:50.220Z,96623.53
2022-10-05T08:54:07.458Z,96611.56
2022-10-05T09:09:18.598Z,96602.59
2022-10-05T09:24:26.222Z,96589.16
2022-10-05T09:39:32.911Z,96591.19
2022-10-05T09:54:37.783Z,96571.91
2022-10-05T10:09:39.643Z,96572.56
2022-10-05T10:24:59.924Z,96550.19
2022-10-05T10:40:20.702Z,96552.94
2022-10-05T10:55:41.171Z,96548.28
2022-10-05T11:10:49.036Z,96543.22
2022-10-05T11:25:50.907Z,96520.66
2022-10-05T11:41:04.943Z,96503.06
2022-10-05T11:56:16.190Z,96498.09
2022-10-05T12:11:30.163Z,96474.44
2022-10-05T12:26:40.995Z,96473.03
2022-10-05T12:41:45.171Z,96459.66
2022-10-05T12:57:05.887Z,96442.25
2022-10-05T13:12:12.032Z,96447.31
2022-10-05T13:27:15.868Z,96437.91
2022-10-05T13:42:36.085Z,96428.97
2022-10-05T13:57:51.573Z,96423.16
2022-10-05T14:12:53.937Z,96404.13
2022-10-05T14:27:59.250Z,96397.53
2022-10-05T14:43:16.458Z,96387.34
2022-10-05T14:58:18.334Z,96388.56
2022-10-05T15:13:32.410Z,96387.81
2022-10-05T15:28:48.944Z,96384.59
2022-10-05T15:44:01.975Z,96387.00
2022-10-05T15:59:24.450Z,96396.38
2022-10-05T16:14:41.711Z,96404.00
2022-10-05T16:29:53.209Z,96414.31
2022-10-05T16:44:55.459Z,96428.28
2022-10-05T17:00:04.989Z,96447.66
2022-10-05T17:15:10.242Z,96461.91
2022-10-05T17:30:27.386Z,96470.00
2022-10-05T17:45:29.336Z,96485.47
2022-10-05T18:00:35.482Z,96485.00
2022-10-05T18:15:43.812Z,96490.03
2022-10-05T18:30:54.969Z,96508.34
2022-10-05T18:46:03.641Z,96523.09
2022-10-05T19:01:16.963Z,96527.34
2022-10-05T19:16:22.568Z,96546.97
2022-10-05T19:31:34.536Z,96569.81
2022-10-05T19:46:36.413Z,96596.97
2022-10-05T20:01:40.139Z,96620.00
2022-10-05T20:17:00.983Z,96639.22
2022-10-05T20:32:08.726Z,96662.03
2022-10-05T20:47:10.706Z,96683.59
2022-10-05T21:02:12.675Z,96700.34
2022-10-05T21:17:14.682Z,96711.44
2022-10-05T21:32:16.589Z,96719.56
2022-10-05T21:47:18.526Z,96747.91
2022-10-05T22:02:20.402Z,96760.16
2022-10-05T22:17:27.290Z,96760.16
2022-10-05T22:32:29.165Z,96772.41
2022-10-05T22:47:31.038Z,96783.50
2022-10-05T23:02:35.955Z,96784.31
2022-10-05T23:17:39.190Z,96783.16
2022-10-05T23:32:41.392Z,96804.72
2022-10-05T23:47:43.301Z,96815.84
